AIB609 PKMJ-NTAA
Flight info
| Callsign | AIB609 |
|---|---|
| Flight time | N/A |
| Altitude | 35000 |
| Route | VAVEE R332 BO A578 FU A584 FA B577 TUT G224 TAF |
| Aircraft | A339/H-SADE1E2E3GHIJ3J5M1P2RWXY/LB2D1 |
Departure
| Time | 2026-04-27 16:50 |
|---|---|
| Airport | Marshall Islands International Airport (PKMJ) |
Arrival
| Time | N/A |
|---|---|
| Airport | Fa'a'ā International Airport (NTAA) |
| Time | Latitude | Longitude | Altitude | Speed | Heading |
|---|---|---|---|---|---|
| 2026-04-27 16:34 | 7.06845 | 171.28205 | 10 ft | 0 kts | 250° |
| 2026-04-27 16:44 | 7.06846 | 171.28205 | 10 ft | 0 kts | 250° |
| 2026-04-27 16:48 | 7.06843 | 171.28202 | 10 ft | 2 kts | 241° |
| 2026-04-27 16:48 | 7.06824 | 171.28205 | 9 ft | 3 kts | 169° |
| 2026-04-27 16:48 | 7.06792 | 171.28228 | 10 ft | 7 kts | 149° |
| 2026-04-27 16:49 | 7.06749 | 171.28202 | 10 ft | 3 kts | 246° |
| 2026-04-27 16:49 | 7.06740 | 171.28174 | 10 ft | 5 kts | 252° |
| 2026-04-27 16:49 | 7.06721 | 171.28090 | 8 ft | 37 kts | 256° |
| 2026-04-27 16:49 | 7.06594 | 171.27578 | 6 ft | 112 kts | 256° |
| 2026-04-27 16:50 | 7.06354 | 171.26600 | 10 ft | 173 kts | 255° |
| 2026-04-27 16:50 | 7.06045 | 171.25373 | 534 ft | 181 kts | 254° |
| 2026-04-27 16:50 | 7.05752 | 171.24120 | 1180 ft | 186 kts | 254° |
| 2026-04-27 16:50 | 7.05453 | 171.22852 | 1853 ft | 186 kts | 254° |
| 2026-04-27 16:51 | 7.04970 | 171.21603 | 2102 ft | 205 kts | 228° |
| 2026-04-27 16:51 | 7.03849 | 171.20771 | 2508 ft | 199 kts | 194° |
| 2026-04-27 16:51 | 7.02420 | 171.20561 | 2552 ft | 228 kts | 167° |
| 2026-04-27 16:51 | 7.00901 | 171.21118 | 2945 ft | 233 kts | 144° |
| 2026-04-27 16:52 | 6.99413 | 171.21984 | 3163 ft | 257 kts | 146° |
| 2026-04-27 16:52 | 6.97823 | 171.22817 | 3841 ft | 258 kts | 150° |
| 2026-04-27 16:52 | 6.96160 | 171.23561 | 4428 ft | 264 kts | 154° |
| 2026-04-27 16:52 | 6.94434 | 171.24242 | 5044 ft | 267 kts | 156° |
| 2026-04-27 16:53 | 6.92699 | 171.24882 | 5541 ft | 267 kts | 156° |
| 2026-04-27 16:53 | 6.90930 | 171.25521 | 5997 ft | 271 kts | 157° |
| 2026-04-27 16:53 | 6.89147 | 171.26165 | 6476 ft | 274 kts | 157° |
| 2026-04-27 16:53 | 6.87581 | 171.26734 | 6865 ft | 277 kts | 157° |
| 2026-04-27 16:54 | 6.85742 | 171.27408 | 7402 ft | 277 kts | 157° |
| 2026-04-27 16:54 | 6.83923 | 171.28075 | 7858 ft | 281 kts | 157° |
| 2026-04-27 16:54 | 6.82100 | 171.28743 | 8306 ft | 283 kts | 157° |
| 2026-04-27 16:54 | 6.80240 | 171.29426 | 8778 ft | 285 kts | 157° |
| 2026-04-27 16:55 | 6.78362 | 171.30115 | 9264 ft | 288 kts | 158° |
| 2026-04-27 16:55 | 6.76472 | 171.30808 | 9734 ft | 291 kts | 158° |
| 2026-04-27 16:55 | 6.74551 | 171.31514 | 10088 ft | 298 kts | 158° |
| 2026-04-27 16:55 | 6.72554 | 171.32248 | 10198 ft | 313 kts | 158° |
| 2026-04-27 16:56 | 6.70460 | 171.33020 | 10326 ft | 327 kts | 158° |
| 2026-04-27 16:56 | 6.68275 | 171.33824 | 10472 ft | 340 kts | 158° |
| 2026-04-27 16:56 | 6.66043 | 171.34644 | 10844 ft | 343 kts | 158° |
| 2026-04-27 16:56 | 6.63791 | 171.35470 | 11275 ft | 345 kts | 158° |
| 2026-04-27 16:57 | 6.61526 | 171.36299 | 11720 ft | 347 kts | 158° |
| 2026-04-27 16:57 | 6.59250 | 171.37134 | 12132 ft | 350 kts | 158° |
| 2026-04-27 16:57 | 6.56954 | 171.37977 | 12536 ft | 352 kts | 158° |
| 2026-04-27 16:57 | 6.54644 | 171.38824 | 12987 ft | 354 kts | 158° |
| 2026-04-27 16:58 | 6.52347 | 171.39665 | 13386 ft | 357 kts | 158° |
| 2026-04-27 16:58 | 6.50004 | 171.40524 | 13780 ft | 359 kts | 158° |
| 2026-04-27 16:58 | 6.47654 | 171.41387 | 14145 ft | 361 kts | 158° |
| 2026-04-27 16:58 | 6.45283 | 171.42256 | 14514 ft | 363 kts | 158° |
| 2026-04-27 16:59 | 6.42911 | 171.43125 | 14877 ft | 365 kts | 158° |
| 2026-04-27 16:59 | 6.40519 | 171.44002 | 15227 ft | 367 kts | 158° |
| 2026-04-27 16:59 | 6.38116 | 171.44883 | 15569 ft | 369 kts | 158° |
| 2026-04-27 16:59 | 6.35696 | 171.45772 | 15911 ft | 371 kts | 158° |
| 2026-04-27 17:00 | 6.31640 | 171.47258 | 16482 ft | 374 kts | 158° |
| 2026-04-27 17:00 | 6.28353 | 171.48463 | 16895 ft | 377 kts | 158° |
| 2026-04-27 17:00 | 6.25907 | 171.49359 | 17218 ft | 379 kts | 158° |
| 2026-04-27 17:01 | 6.23414 | 171.50273 | 17537 ft | 382 kts | 158° |
| 2026-04-27 17:01 | 6.20913 | 171.51189 | 17848 ft | 384 kts | 158° |
| 2026-04-27 17:01 | 6.18399 | 171.52108 | 18176 ft | 385 kts | 158° |
| 2026-04-27 17:01 | 6.15878 | 171.53030 | 18473 ft | 386 kts | 158° |
| 2026-04-27 17:02 | 6.13336 | 171.53960 | 18777 ft | 387 kts | 158° |
| 2026-04-27 17:02 | 6.10801 | 171.54890 | 19059 ft | 389 kts | 159° |
| 2026-04-27 17:02 | 6.08253 | 171.55824 | 19364 ft | 390 kts | 159° |
| 2026-04-27 17:02 | 6.05692 | 171.56761 | 19636 ft | 392 kts | 159° |
| 2026-04-27 17:03 | 6.03122 | 171.57702 | 19933 ft | 393 kts | 159° |
| 2026-04-27 17:03 | 6.00545 | 171.58646 | 20196 ft | 396 kts | 159° |
| 2026-04-27 17:03 | 5.97955 | 171.59595 | 20468 ft | 397 kts | 159° |
| 2026-04-27 17:03 | 5.95345 | 171.60550 | 20759 ft | 399 kts | 159° |
| 2026-04-27 17:04 | 5.92726 | 171.61509 | 21028 ft | 401 kts | 160° |
| 2026-04-27 17:04 | 5.90095 | 171.62472 | 21294 ft | 404 kts | 160° |
| 2026-04-27 17:04 | 5.87449 | 171.63440 | 21569 ft | 406 kts | 160° |
| 2026-04-27 17:04 | 5.84782 | 171.64416 | 21822 ft | 408 kts | 160° |
| 2026-04-27 17:05 | 5.82139 | 171.65383 | 22098 ft | 410 kts | 160° |
| 2026-04-27 17:05 | 5.79449 | 171.66367 | 22377 ft | 412 kts | 160° |
| 2026-04-27 17:05 | 5.76746 | 171.67356 | 22661 ft | 414 kts | 160° |
| 2026-04-27 17:05 | 5.74025 | 171.68351 | 22936 ft | 416 kts | 160° |
| 2026-04-27 17:06 | 5.71298 | 171.69348 | 23218 ft | 418 kts | 160° |
| 2026-04-27 17:06 | 5.68541 | 171.70357 | 23489 ft | 420 kts | 160° |
| 2026-04-27 17:06 | 5.65783 | 171.71365 | 23744 ft | 422 kts | 160° |
| 2026-04-27 17:06 | 5.63019 | 171.72376 | 24003 ft | 423 kts | 160° |
| 2026-04-27 17:07 | 5.60246 | 171.73390 | 24248 ft | 425 kts | 160° |
| 2026-04-27 17:07 | 5.57467 | 171.74406 | 24507 ft | 426 kts | 160° |
| 2026-04-27 17:07 | 5.54673 | 171.75427 | 24749 ft | 428 kts | 160° |
| 2026-04-27 17:07 | 5.51912 | 171.76436 | 24999 ft | 429 kts | 160° |
| 2026-04-27 17:08 | 5.49105 | 171.77462 | 25254 ft | 430 kts | 160° |
| 2026-04-27 17:08 | 5.46289 | 171.78492 | 25497 ft | 432 kts | 160° |
| 2026-04-27 17:08 | 5.43459 | 171.79526 | 25743 ft | 433 kts | 160° |
| 2026-04-27 17:08 | 5.40623 | 171.80561 | 25982 ft | 435 kts | 160° |
| 2026-04-27 17:09 | 5.37779 | 171.81601 | 26234 ft | 436 kts | 160° |
| 2026-04-27 17:09 | 5.34920 | 171.82645 | 26486 ft | 437 kts | 160° |
| 2026-04-27 17:09 | 5.32056 | 171.83691 | 26726 ft | 438 kts | 160° |
| 2026-04-27 17:09 | 5.29184 | 171.84740 | 26975 ft | 439 kts | 160° |
| 2026-04-27 17:10 | 5.26309 | 171.85790 | 27219 ft | 441 kts | 160° |
| 2026-04-27 17:10 | 5.23421 | 171.86845 | 27448 ft | 442 kts | 160° |
| 2026-04-27 17:10 | 5.20528 | 171.87901 | 27713 ft | 443 kts | 160° |
| 2026-04-27 17:10 | 5.17630 | 171.88959 | 27941 ft | 444 kts | 160° |
| 2026-04-27 17:11 | 5.14725 | 171.90019 | 28167 ft | 445 kts | 160° |
| 2026-04-27 17:11 | 5.08885 | 171.92151 | 28671 ft | 447 kts | 160° |
| 2026-04-27 17:11 | 5.05958 | 171.93219 | 28869 ft | 448 kts | 160° |
| 2026-04-27 17:12 | 5.00111 | 171.95352 | 29293 ft | 451 kts | 160° |
| 2026-04-27 17:12 | 4.97160 | 171.96429 | 29486 ft | 453 kts | 160° |
| 2026-04-27 17:12 | 4.94193 | 171.97511 | 29676 ft | 454 kts | 160° |
| 2026-04-27 17:13 | 4.91214 | 171.98597 | 29894 ft | 456 kts | 160° |
| 2026-04-27 17:13 | 4.88230 | 171.99686 | 30086 ft | 457 kts | 160° |
| 2026-04-27 17:13 | 4.85231 | 172.00779 | 30251 ft | 459 kts | 160° |
| 2026-04-27 17:13 | 4.82218 | 172.01878 | 30438 ft | 460 kts | 160° |
| 2026-04-27 17:14 | 4.79205 | 172.02977 | 30617 ft | 462 kts | 160° |
| 2026-04-27 17:14 | 4.76176 | 172.04081 | 30811 ft | 463 kts | 160° |
| 2026-04-27 17:14 | 4.73133 | 172.05191 | 30991 ft | 465 kts | 160° |
| 2026-04-27 17:14 | 4.70086 | 172.06302 | 31167 ft | 467 kts | 160° |
| 2026-04-27 17:15 | 4.67066 | 172.07403 | 31343 ft | 469 kts | 160° |
| 2026-04-27 17:15 | 4.63999 | 172.08520 | 31536 ft | 470 kts | 160° |
| 2026-04-27 17:15 | 4.60914 | 172.09644 | 31721 ft | 472 kts | 160° |
| 2026-04-27 17:15 | 4.57826 | 172.10769 | 31890 ft | 473 kts | 160° |
| 2026-04-27 17:16 | 4.54720 | 172.11901 | 32050 ft | 475 kts | 160° |
| 2026-04-27 17:16 | 4.51602 | 172.13036 | 32189 ft | 477 kts | 160° |
| 2026-04-27 17:16 | 4.48476 | 172.14175 | 32331 ft | 479 kts | 160° |
| 2026-04-27 17:16 | 4.45333 | 172.15320 | 32453 ft | 481 kts | 160° |
| 2026-04-27 17:17 | 4.42184 | 172.16467 | 32561 ft | 482 kts | 160° |
| 2026-04-27 17:17 | 4.35855 | 172.18771 | 32751 ft | 485 kts | 160° |
| 2026-04-27 17:18 | 4.29513 | 172.21080 | 32916 ft | 488 kts | 160° |
| 2026-04-27 17:18 | 4.26314 | 172.22245 | 32986 ft | 490 kts | 160° |
| 2026-04-27 17:18 | 4.19892 | 172.24582 | 33122 ft | 492 kts | 160° |
| 2026-04-27 17:19 | 4.13449 | 172.26927 | 33263 ft | 493 kts | 159° |
| 2026-04-27 17:19 | 4.06981 | 172.29280 | 33392 ft | 494 kts | 159° |
| 2026-04-27 17:20 | 4.00550 | 172.31621 | 33534 ft | 495 kts | 159° |
| 2026-04-27 17:20 | 3.94072 | 172.33976 | 33680 ft | 495 kts | 159° |
| 2026-04-27 17:21 | 3.87578 | 172.36336 | 33826 ft | 496 kts | 159° |
| 2026-04-27 17:21 | 3.81088 | 172.38696 | 33989 ft | 496 kts | 159° |
| 2026-04-27 17:22 | 3.74607 | 172.41054 | 34160 ft | 495 kts | 159° |
| 2026-04-27 17:22 | 3.68173 | 172.43394 | 34332 ft | 495 kts | 159° |
| 2026-04-27 17:23 | 3.61701 | 172.45747 | 34505 ft | 494 kts | 159° |
| 2026-04-27 17:23 | 3.55232 | 172.48095 | 34661 ft | 494 kts | 159° |
| 2026-04-27 17:24 | 3.48749 | 172.50393 | 34811 ft | 494 kts | 162° |
| 2026-04-27 17:24 | 3.42158 | 172.52386 | 34864 ft | 496 kts | 162° |
| 2026-04-27 17:25 | 3.35542 | 172.54405 | 34863 ft | 498 kts | 162° |
| 2026-04-27 17:25 | 3.28901 | 172.56431 | 34866 ft | 499 kts | 162° |
| 2026-04-27 17:26 | 3.22285 | 172.58448 | 34865 ft | 500 kts | 162° |
| 2026-04-27 17:26 | 3.15628 | 172.60479 | 34867 ft | 500 kts | 162° |
| 2026-04-27 17:27 | 3.08977 | 172.62507 | 34866 ft | 499 kts | 162° |
| 2026-04-27 17:27 | 3.02325 | 172.64535 | 34868 ft | 499 kts | 162° |
| 2026-04-27 17:28 | 2.95689 | 172.66558 | 34865 ft | 498 kts | 162° |
| 2026-04-27 17:29 | 2.86878 | 172.69243 | 34864 ft | 497 kts | 162° |
| 2026-04-27 17:29 | 2.80263 | 172.71260 | 34865 ft | 496 kts | 162° |
| 2026-04-27 17:30 | 2.73653 | 172.73274 | 34863 ft | 496 kts | 162° |
| 2026-04-27 17:30 | 2.63748 | 172.76292 | 34864 ft | 496 kts | 162° |
| 2026-04-27 17:31 | 2.57153 | 172.78300 | 34861 ft | 495 kts | 162° |
| 2026-04-27 17:31 | 2.50555 | 172.80310 | 34862 ft | 495 kts | 162° |
| 2026-04-27 17:32 | 2.40666 | 172.83323 | 34862 ft | 495 kts | 162° |
| 2026-04-27 17:33 | 2.34112 | 172.85319 | 34861 ft | 495 kts | 162° |
| 2026-04-27 17:33 | 2.27526 | 172.87324 | 34864 ft | 495 kts | 162° |
| 2026-04-27 17:34 | 2.20938 | 172.89330 | 34864 ft | 495 kts | 162° |
| 2026-04-27 17:34 | 2.14347 | 172.91336 | 34865 ft | 495 kts | 162° |
| 2026-04-27 17:35 | 2.07750 | 172.93344 | 34867 ft | 495 kts | 162° |
| 2026-04-27 17:35 | 2.01152 | 172.95353 | 34865 ft | 495 kts | 162° |
| 2026-04-27 17:36 | 1.94545 | 172.97364 | 34866 ft | 496 kts | 162° |
| 2026-04-27 17:36 | 1.87969 | 172.99366 | 34860 ft | 496 kts | 162° |
| 2026-04-27 17:37 | 1.81360 | 173.01377 | 34866 ft | 496 kts | 162° |
| 2026-04-27 17:37 | 1.74755 | 173.03387 | 34863 ft | 497 kts | 162° |
| 2026-04-27 17:38 | 1.68127 | 173.05404 | 34859 ft | 497 kts | 162° |
| 2026-04-27 17:38 | 1.61501 | 173.07421 | 34848 ft | 497 kts | 162° |
| 2026-04-27 17:39 | 1.54866 | 173.09440 | 34839 ft | 498 kts | 162° |
| 2026-04-27 17:39 | 1.48232 | 173.11458 | 34832 ft | 498 kts | 162° |
| 2026-04-27 17:40 | 1.41643 | 173.13467 | 34829 ft | 498 kts | 161° |
| 2026-04-27 17:40 | 1.35296 | 173.16207 | 34825 ft | 497 kts | 150° |
| 2026-04-27 17:41 | 1.29395 | 173.19803 | 34828 ft | 496 kts | 147° |
| 2026-04-27 17:41 | 1.23480 | 173.23405 | 34840 ft | 497 kts | 148° |
| 2026-04-27 17:42 | 1.17574 | 173.26995 | 34845 ft | 497 kts | 148° |
| 2026-04-27 17:42 | 1.11702 | 173.30566 | 34854 ft | 497 kts | 148° |
| 2026-04-27 17:43 | 1.05796 | 173.34159 | 34863 ft | 497 kts | 148° |
| 2026-04-27 17:43 | 0.99883 | 173.37756 | 34864 ft | 497 kts | 148° |
| 2026-04-27 17:44 | 0.93973 | 173.41351 | 34862 ft | 497 kts | 147° |
| 2026-04-27 17:44 | 0.88066 | 173.44945 | 34864 ft | 497 kts | 147° |
| 2026-04-27 17:45 | 0.82153 | 173.48541 | 34856 ft | 497 kts | 147° |
| 2026-04-27 17:45 | 0.76278 | 173.52115 | 34855 ft | 497 kts | 147° |
| 2026-04-27 17:46 | 0.70371 | 173.55708 | 34857 ft | 497 kts | 147° |
| 2026-04-27 17:46 | 0.64464 | 173.59301 | 34856 ft | 497 kts | 147° |
| 2026-04-27 17:47 | 0.58549 | 173.62898 | 34854 ft | 497 kts | 147° |
| 2026-04-27 17:47 | 0.52637 | 173.66493 | 34857 ft | 497 kts | 147° |
| 2026-04-27 17:48 | 0.46770 | 173.70062 | 34858 ft | 497 kts | 147° |
| 2026-04-27 17:48 | 0.40860 | 173.73656 | 34856 ft | 497 kts | 147° |
| 2026-04-27 17:49 | 0.34951 | 173.77250 | 34853 ft | 497 kts | 147° |
| 2026-04-27 17:49 | 0.29048 | 173.80839 | 34859 ft | 497 kts | 148° |
| 2026-04-27 17:50 | 0.23137 | 173.84434 | 34859 ft | 497 kts | 148° |
| 2026-04-27 17:50 | 0.14275 | 173.89823 | 34857 ft | 497 kts | 148° |
| 2026-04-27 17:51 | 0.08367 | 173.93416 | 34860 ft | 497 kts | 148° |
| 2026-04-27 17:51 | 0.02443 | 173.97019 | 34861 ft | 497 kts | 148° |
| 2026-04-27 17:52 | -0.03436 | 174.00593 | 34861 ft | 498 kts | 148° |
| 2026-04-27 17:52 | -0.09390 | 174.04214 | 34858 ft | 498 kts | 148° |
| 2026-04-27 17:53 | -0.15274 | 174.07792 | 34858 ft | 498 kts | 148° |
| 2026-04-27 17:53 | -0.21206 | 174.11398 | 34858 ft | 498 kts | 148° |
| 2026-04-27 17:54 | -0.27126 | 174.14998 | 34860 ft | 499 kts | 148° |
| 2026-04-27 17:54 | -0.33053 | 174.18603 | 34858 ft | 499 kts | 148° |
| 2026-04-27 17:55 | -0.38986 | 174.22210 | 34859 ft | 498 kts | 148° |
| 2026-04-27 17:55 | -0.44878 | 174.25793 | 34858 ft | 498 kts | 148° |
| 2026-04-27 17:56 | -0.50799 | 174.29393 | 34859 ft | 498 kts | 148° |
| 2026-04-27 17:56 | -0.56719 | 174.32993 | 34859 ft | 497 kts | 148° |
| 2026-04-27 17:57 | -0.62627 | 174.36588 | 34859 ft | 497 kts | 148° |
| 2026-04-27 17:57 | -0.68529 | 174.40176 | 34859 ft | 496 kts | 148° |
| 2026-04-27 17:58 | -0.74431 | 174.43766 | 34861 ft | 495 kts | 148° |
| 2026-04-27 17:58 | -0.80322 | 174.47349 | 34859 ft | 495 kts | 148° |
| 2026-04-27 17:59 | -0.86204 | 174.50927 | 34863 ft | 494 kts | 148° |
| 2026-04-27 17:59 | -0.92033 | 174.54473 | 34859 ft | 494 kts | 148° |
| 2026-04-27 18:00 | -0.97902 | 174.58043 | 34859 ft | 494 kts | 148° |
| 2026-04-27 18:00 | -1.03768 | 174.61612 | 34858 ft | 494 kts | 148° |
| 2026-04-27 18:01 | -1.09646 | 174.65188 | 34858 ft | 495 kts | 148° |
| 2026-04-27 18:01 | -1.15527 | 174.68766 | 34860 ft | 495 kts | 148° |
| 2026-04-27 18:02 | -1.21418 | 174.72350 | 34857 ft | 495 kts | 148° |
| 2026-04-27 18:02 | -1.27316 | 174.75938 | 34862 ft | 496 kts | 148° |
| 2026-04-27 18:03 | -1.33212 | 174.79526 | 34856 ft | 496 kts | 148° |
| 2026-04-27 18:03 | -1.39071 | 174.83091 | 34861 ft | 496 kts | 148° |
| 2026-04-27 18:04 | -1.44984 | 174.86688 | 34861 ft | 497 kts | 148° |
| 2026-04-27 18:04 | -1.50893 | 174.90285 | 34858 ft | 497 kts | 148° |
| 2026-04-27 18:05 | -1.56801 | 174.93882 | 34861 ft | 497 kts | 148° |
| 2026-04-27 18:05 | -1.62710 | 174.97478 | 34864 ft | 497 kts | 148° |
| 2026-04-27 18:06 | -1.68617 | 175.01074 | 34863 ft | 497 kts | 148° |
| 2026-04-27 18:06 | -1.74495 | 175.04652 | 34863 ft | 497 kts | 148° |
| 2026-04-27 18:07 | -1.80404 | 175.08250 | 34864 ft | 497 kts | 148° |
| 2026-04-27 18:07 | -1.86311 | 175.11847 | 34861 ft | 497 kts | 148° |
| 2026-04-27 18:08 | -1.92221 | 175.15445 | 34863 ft | 497 kts | 148° |
| 2026-04-27 18:08 | -1.98138 | 175.19048 | 34862 ft | 498 kts | 148° |
| 2026-04-27 18:09 | -2.04055 | 175.22652 | 34863 ft | 498 kts | 149° |
| 2026-04-27 18:09 | -2.09931 | 175.26231 | 34863 ft | 498 kts | 149° |
| 2026-04-27 18:10 | -2.15847 | 175.29834 | 34862 ft | 498 kts | 149° |
| 2026-04-27 18:10 | -2.21768 | 175.33441 | 34861 ft | 498 kts | 149° |
| 2026-04-27 18:11 | -2.27690 | 175.37049 | 34863 ft | 498 kts | 149° |
| 2026-04-27 18:11 | -2.33618 | 175.40661 | 34865 ft | 498 kts | 149° |
| 2026-04-27 18:12 | -2.39538 | 175.44268 | 34865 ft | 498 kts | 149° |
| 2026-04-27 18:12 | -2.45456 | 175.47875 | 34864 ft | 498 kts | 149° |
| 2026-04-27 18:13 | -2.51375 | 175.51482 | 34868 ft | 497 kts | 149° |
| 2026-04-27 18:13 | -2.57292 | 175.55089 | 34867 ft | 497 kts | 149° |
| 2026-04-27 18:14 | -2.63172 | 175.58673 | 34868 ft | 497 kts | 149° |
| 2026-04-27 18:14 | -2.69091 | 175.62281 | 34868 ft | 497 kts | 149° |
| 2026-04-27 18:15 | -2.75004 | 175.65887 | 34868 ft | 498 kts | 149° |
| 2026-04-27 18:15 | -2.79916 | 175.68882 | 34868 ft | 498 kts | 149° |
| 2026-04-27 18:16 | -2.86790 | 175.73075 | 34869 ft | 498 kts | 149° |
| 2026-04-27 18:16 | -2.91748 | 175.76099 | 34866 ft | 498 kts | 149° |
| 2026-04-27 18:17 | -2.97668 | 175.79711 | 34867 ft | 498 kts | 149° |
| 2026-04-27 18:17 | -3.03584 | 175.83320 | 34871 ft | 498 kts | 149° |
| 2026-04-27 18:18 | -3.09466 | 175.86909 | 34871 ft | 498 kts | 149° |
| 2026-04-27 18:18 | -3.15420 | 175.90542 | 34870 ft | 498 kts | 149° |
| 2026-04-27 18:19 | -3.21291 | 175.94126 | 34870 ft | 497 kts | 149° |
| 2026-04-27 18:19 | -3.27199 | 175.97732 | 34866 ft | 497 kts | 149° |
| 2026-04-27 18:20 | -3.33107 | 176.01339 | 34868 ft | 497 kts | 149° |
| 2026-04-27 18:20 | -3.39005 | 176.04941 | 34868 ft | 496 kts | 149° |
| 2026-04-27 18:21 | -3.44901 | 176.08541 | 34869 ft | 496 kts | 149° |
| 2026-04-27 18:21 | -3.50788 | 176.12137 | 34869 ft | 496 kts | 149° |
| 2026-04-27 18:22 | -3.56679 | 176.15736 | 34868 ft | 496 kts | 149° |
| 2026-04-27 18:22 | -3.62575 | 176.19339 | 34871 ft | 495 kts | 149° |
| 2026-04-27 18:23 | -3.68424 | 176.22911 | 34870 ft | 495 kts | 149° |
| 2026-04-27 18:23 | -3.74307 | 176.26506 | 34872 ft | 495 kts | 149° |
| 2026-04-27 18:24 | -3.80189 | 176.30102 | 34872 ft | 495 kts | 149° |
| 2026-04-27 18:24 | -3.86071 | 176.33698 | 34872 ft | 495 kts | 149° |
| 2026-04-27 18:25 | -3.91944 | 176.37289 | 34873 ft | 495 kts | 149° |
| 2026-04-27 18:25 | -3.97820 | 176.40882 | 34874 ft | 494 kts | 149° |
| 2026-04-27 18:26 | -4.03664 | 176.44456 | 34873 ft | 494 kts | 149° |
| 2026-04-27 18:26 | -4.09528 | 176.48044 | 34872 ft | 494 kts | 149° |
| 2026-04-27 18:27 | -4.15398 | 176.51636 | 34873 ft | 494 kts | 149° |
| 2026-04-27 18:27 | -4.21262 | 176.55224 | 34870 ft | 494 kts | 149° |
| 2026-04-27 18:28 | -4.27120 | 176.58809 | 34871 ft | 493 kts | 149° |
| 2026-04-27 18:28 | -4.32983 | 176.62400 | 34871 ft | 493 kts | 149° |
| 2026-04-27 18:29 | -4.38839 | 176.65985 | 34871 ft | 493 kts | 149° |
| 2026-04-27 18:29 | -4.44689 | 176.69568 | 34871 ft | 493 kts | 149° |
| 2026-04-27 18:30 | -4.50537 | 176.73149 | 34873 ft | 493 kts | 149° |
| 2026-04-27 18:30 | -4.56388 | 176.76734 | 34872 ft | 492 kts | 149° |
| 2026-04-27 18:31 | -4.62236 | 176.80318 | 34873 ft | 492 kts | 149° |
| 2026-04-27 18:31 | -4.68038 | 176.83875 | 34874 ft | 492 kts | 149° |
| 2026-04-27 18:32 | -4.73879 | 176.87455 | 34875 ft | 492 kts | 149° |
| 2026-04-27 18:32 | -4.79723 | 176.91037 | 34876 ft | 492 kts | 149° |
| 2026-04-27 18:33 | -4.85571 | 176.94623 | 34876 ft | 492 kts | 149° |
| 2026-04-27 18:33 | -4.91417 | 176.98207 | 34876 ft | 492 kts | 149° |
| 2026-04-27 18:34 | -4.97258 | 177.01790 | 34875 ft | 492 kts | 149° |
| 2026-04-27 18:34 | -5.03094 | 177.05365 | 34876 ft | 492 kts | 149° |
| 2026-04-27 18:35 | -5.08943 | 177.08927 | 34874 ft | 492 kts | 149° |
| 2026-04-27 18:35 | -5.14797 | 177.12488 | 34876 ft | 492 kts | 149° |
| 2026-04-27 18:36 | -5.20612 | 177.16030 | 34876 ft | 492 kts | 149° |
| 2026-04-27 18:36 | -5.26467 | 177.19597 | 34876 ft | 492 kts | 149° |
| 2026-04-27 18:37 | -5.32325 | 177.23167 | 34876 ft | 492 kts | 149° |
| 2026-04-27 18:37 | -5.38179 | 177.26735 | 34878 ft | 492 kts | 149° |
| 2026-04-27 18:38 | -5.44029 | 177.30303 | 34876 ft | 493 kts | 149° |
| 2026-04-27 18:38 | -5.49904 | 177.33886 | 34877 ft | 493 kts | 149° |
| 2026-04-27 18:39 | -5.55761 | 177.37459 | 34877 ft | 493 kts | 149° |
| 2026-04-27 18:39 | -5.61622 | 177.41036 | 34880 ft | 493 kts | 149° |
| 2026-04-27 18:40 | -5.67450 | 177.44593 | 34877 ft | 493 kts | 149° |
| 2026-04-27 18:40 | -5.73309 | 177.48170 | 34879 ft | 493 kts | 149° |
| 2026-04-27 18:41 | -5.79163 | 177.51745 | 34877 ft | 493 kts | 149° |
| 2026-04-27 18:41 | -5.85024 | 177.55325 | 34876 ft | 492 kts | 149° |
| 2026-04-27 18:42 | -5.89886 | 177.58294 | 34875 ft | 492 kts | 149° |
| 2026-04-27 18:42 | -5.96736 | 177.62481 | 34879 ft | 492 kts | 149° |
| 2026-04-27 18:43 | -6.02584 | 177.66054 | 34879 ft | 492 kts | 149° |
| 2026-04-27 18:43 | -6.08400 | 177.69611 | 34874 ft | 492 kts | 149° |
| 2026-04-27 18:44 | -6.14247 | 177.73185 | 34877 ft | 492 kts | 149° |
| 2026-04-27 18:44 | -6.20126 | 177.76781 | 34875 ft | 491 kts | 149° |
| 2026-04-27 18:45 | -6.25924 | 177.80330 | 34876 ft | 491 kts | 149° |
| 2026-04-27 18:45 | -6.31770 | 177.83908 | 34878 ft | 491 kts | 149° |
| 2026-04-27 18:46 | -6.37605 | 177.87481 | 34878 ft | 490 kts | 149° |
| 2026-04-27 18:46 | -6.43432 | 177.91051 | 34878 ft | 490 kts | 149° |
| 2026-04-27 18:47 | -6.49249 | 177.94613 | 34878 ft | 489 kts | 149° |
| 2026-04-27 18:47 | -6.55029 | 177.98153 | 34878 ft | 489 kts | 149° |
| 2026-04-27 18:48 | -6.60830 | 178.01708 | 34879 ft | 488 kts | 149° |
| 2026-04-27 18:48 | -6.66630 | 178.05264 | 34881 ft | 487 kts | 149° |
| 2026-04-27 18:49 | -6.72420 | 178.08814 | 34881 ft | 487 kts | 149° |
| 2026-04-27 18:49 | -6.78202 | 178.12361 | 34881 ft | 487 kts | 149° |
| 2026-04-27 18:50 | -6.83983 | 178.15909 | 34881 ft | 486 kts | 149° |
| 2026-04-27 18:50 | -6.89757 | 178.19452 | 34881 ft | 486 kts | 149° |
| 2026-04-27 18:51 | -6.95534 | 178.22998 | 34882 ft | 486 kts | 149° |
| 2026-04-27 18:51 | -7.01301 | 178.26540 | 34882 ft | 486 kts | 149° |
| 2026-04-27 18:52 | -7.07070 | 178.30083 | 34882 ft | 485 kts | 149° |
| 2026-04-27 18:53 | -7.15676 | 178.35372 | 34879 ft | 485 kts | 149° |
| 2026-04-27 18:53 | -7.21445 | 178.38919 | 34885 ft | 485 kts | 149° |
| 2026-04-27 18:54 | -7.27201 | 178.42458 | 34884 ft | 485 kts | 149° |
| 2026-04-27 18:54 | -7.32961 | 178.46001 | 34887 ft | 484 kts | 149° |
| 2026-04-27 18:55 | -7.38714 | 178.49541 | 34886 ft | 484 kts | 149° |
| 2026-04-27 18:55 | -7.44434 | 178.53061 | 34889 ft | 484 kts | 149° |
| 2026-04-27 18:56 | -7.50189 | 178.56604 | 34889 ft | 484 kts | 149° |
| 2026-04-27 18:56 | -7.55940 | 178.60147 | 34889 ft | 484 kts | 149° |
| 2026-04-27 18:57 | -7.61655 | 178.63667 | 34889 ft | 484 kts | 149° |
| 2026-04-27 18:57 | -7.67410 | 178.67214 | 34888 ft | 484 kts | 149° |
| 2026-04-27 18:58 | -7.73159 | 178.70758 | 34888 ft | 484 kts | 149° |
| 2026-04-27 18:58 | -7.78906 | 178.74302 | 34893 ft | 484 kts | 149° |
| 2026-04-27 18:59 | -7.84653 | 178.77847 | 34891 ft | 484 kts | 149° |
| 2026-04-27 18:59 | -7.90397 | 178.81391 | 34892 ft | 484 kts | 149° |
| 2026-04-27 19:00 | -7.96107 | 178.84916 | 34892 ft | 484 kts | 149° |
| 2026-04-27 19:00 | -8.01850 | 178.88462 | 34893 ft | 483 kts | 149° |
| 2026-04-27 19:01 | -8.07591 | 178.92008 | 34894 ft | 483 kts | 149° |
| 2026-04-27 19:01 | -8.13292 | 178.95530 | 34893 ft | 483 kts | 149° |
| 2026-04-27 19:02 | -8.19025 | 178.99074 | 34899 ft | 483 kts | 148° |
| 2026-04-27 19:02 | -8.24757 | 179.02618 | 34896 ft | 483 kts | 148° |
| 2026-04-27 19:03 | -8.29566 | 179.05592 | 34898 ft | 483 kts | 148° |
| 2026-04-27 19:03 | -8.35261 | 179.09116 | 34897 ft | 483 kts | 148° |
| 2026-04-27 19:04 | -8.40986 | 179.12659 | 34900 ft | 483 kts | 148° |
| 2026-04-27 19:04 | -8.46724 | 179.16211 | 34901 ft | 482 kts | 148° |
| 2026-04-27 19:05 | -8.52021 | 179.20334 | 34897 ft | 482 kts | 135° |
| 2026-04-27 19:05 | -8.56176 | 179.25646 | 34897 ft | 483 kts | 122° |
| 2026-04-27 19:06 | -8.59728 | 179.31412 | 34908 ft | 483 kts | 123° |
| 2026-04-27 19:06 | -8.63318 | 179.37159 | 34907 ft | 483 kts | 123° |
| 2026-04-27 19:07 | -8.66914 | 179.42918 | 34906 ft | 484 kts | 123° |
| 2026-04-27 19:07 | -8.70506 | 179.48675 | 34905 ft | 484 kts | 123° |
| 2026-04-27 19:08 | -8.74068 | 179.54390 | 34901 ft | 484 kts | 123° |
| 2026-04-27 19:08 | -8.77658 | 179.60153 | 34902 ft | 484 kts | 123° |
| 2026-04-27 19:09 | -8.81247 | 179.65917 | 34906 ft | 484 kts | 123° |
| 2026-04-27 19:09 | -8.84830 | 179.71674 | 34905 ft | 484 kts | 123° |
| 2026-04-27 19:10 | -8.88410 | 179.77428 | 34907 ft | 484 kts | 123° |
| 2026-04-27 19:10 | -8.91970 | 179.83152 | 34905 ft | 484 kts | 123° |
| 2026-04-27 19:11 | -8.95556 | 179.88922 | 34904 ft | 484 kts | 123° |
| 2026-04-27 19:11 | -8.99137 | 179.94687 | 34904 ft | 484 kts | 123° |
| 2026-04-27 19:12 | -9.02725 | -179.99535 | 34906 ft | 484 kts | 123° |
| 2026-04-27 19:12 | -9.06311 | -179.93758 | 34905 ft | 484 kts | 123° |
| 2026-04-27 19:13 | -9.09870 | -179.88023 | 34905 ft | 484 kts | 123° |
| 2026-04-27 19:13 | -9.13453 | -179.82243 | 34909 ft | 484 kts | 123° |
| 2026-04-27 19:14 | -9.17040 | -179.76457 | 34908 ft | 485 kts | 123° |
| 2026-04-27 19:14 | -9.20622 | -179.70674 | 34909 ft | 485 kts | 123° |
| 2026-04-27 19:15 | -9.24184 | -179.64922 | 34912 ft | 485 kts | 123° |
| 2026-04-27 19:15 | -9.27767 | -179.59134 | 34916 ft | 485 kts | 123° |
| 2026-04-27 19:16 | -9.31351 | -179.53341 | 34908 ft | 485 kts | 123° |
| 2026-04-27 19:16 | -9.34942 | -179.47536 | 34909 ft | 486 kts | 123° |
| 2026-04-27 19:17 | -9.38504 | -179.41772 | 34913 ft | 486 kts | 123° |
| 2026-04-27 19:17 | -9.42087 | -179.35972 | 34916 ft | 486 kts | 123° |
| 2026-04-27 19:18 | -9.45674 | -179.30163 | 34915 ft | 486 kts | 123° |
| 2026-04-27 19:18 | -9.49260 | -179.24355 | 34913 ft | 486 kts | 123° |
| 2026-04-27 19:19 | -9.52842 | -179.18549 | 34917 ft | 486 kts | 123° |
| 2026-04-27 19:19 | -9.56428 | -179.12733 | 34917 ft | 486 kts | 123° |
| 2026-04-27 19:20 | -9.59983 | -179.06966 | 34913 ft | 485 kts | 123° |
| 2026-04-27 19:20 | -9.63558 | -179.01165 | 34914 ft | 485 kts | 123° |
| 2026-04-27 19:21 | -9.67128 | -178.95368 | 34917 ft | 484 kts | 123° |
| 2026-04-27 19:21 | -9.70694 | -178.89572 | 34920 ft | 484 kts | 123° |
| 2026-04-27 19:22 | -9.74259 | -178.83778 | 34915 ft | 484 kts | 123° |
| 2026-04-27 19:22 | -9.77799 | -178.78021 | 34916 ft | 483 kts | 122° |
| 2026-04-27 19:23 | -9.81355 | -178.72235 | 34918 ft | 483 kts | 122° |
| 2026-04-27 19:23 | -9.84913 | -178.66442 | 34921 ft | 483 kts | 122° |
| 2026-04-27 19:24 | -9.88442 | -178.60693 | 34921 ft | 483 kts | 122° |
| 2026-04-27 19:24 | -9.91993 | -178.54908 | 34918 ft | 483 kts | 122° |
| 2026-04-27 19:25 | -9.95541 | -178.49122 | 34920 ft | 483 kts | 122° |
| 2026-04-27 19:25 | -9.99091 | -178.43331 | 34918 ft | 483 kts | 122° |
| 2026-04-27 19:26 | -10.02647 | -178.37530 | 34918 ft | 484 kts | 122° |
| 2026-04-27 19:26 | -10.06203 | -178.31721 | 34921 ft | 484 kts | 122° |
| 2026-04-27 19:27 | -10.09753 | -178.25922 | 34920 ft | 484 kts | 122° |
| 2026-04-27 19:27 | -10.13280 | -178.20159 | 34920 ft | 484 kts | 122° |
| 2026-04-27 19:28 | -10.16830 | -178.14353 | 34917 ft | 484 kts | 122° |
| 2026-04-27 19:28 | -10.20383 | -178.08539 | 34920 ft | 484 kts | 122° |
| 2026-04-27 19:29 | -10.23933 | -178.02728 | 34922 ft | 484 kts | 122° |
| 2026-04-27 19:29 | -10.27486 | -177.96908 | 34919 ft | 484 kts | 122° |
| 2026-04-27 19:30 | -10.31035 | -177.91093 | 34919 ft | 484 kts | 122° |
| 2026-04-27 19:30 | -10.34581 | -177.85279 | 34917 ft | 484 kts | 122° |
| 2026-04-27 19:31 | -10.38132 | -177.79456 | 34921 ft | 484 kts | 122° |
| 2026-04-27 19:31 | -10.41680 | -177.73633 | 34919 ft | 484 kts | 122° |
| 2026-04-27 19:32 | -10.45202 | -177.67849 | 34920 ft | 484 kts | 122° |
| 2026-04-27 19:32 | -10.48741 | -177.62034 | 34918 ft | 484 kts | 122° |
| 2026-04-27 19:33 | -10.52279 | -177.56220 | 34920 ft | 483 kts | 122° |
| 2026-04-27 19:33 | -10.55814 | -177.50406 | 34920 ft | 483 kts | 122° |
| 2026-04-27 19:34 | -10.59349 | -177.44590 | 34919 ft | 483 kts | 122° |
| 2026-04-27 19:34 | -10.62878 | -177.38780 | 34920 ft | 483 kts | 122° |
| 2026-04-27 19:35 | -10.66385 | -177.33002 | 34920 ft | 483 kts | 122° |
| 2026-04-27 19:35 | -10.69909 | -177.27195 | 34916 ft | 483 kts | 122° |
| 2026-04-27 19:36 | -10.73432 | -177.21385 | 34916 ft | 483 kts | 122° |
| 2026-04-27 19:36 | -10.76955 | -177.15573 | 34919 ft | 482 kts | 122° |
| 2026-04-27 19:37 | -10.80473 | -177.09764 | 34918 ft | 482 kts | 122° |
| 2026-04-27 19:37 | -10.83995 | -177.03947 | 34914 ft | 482 kts | 122° |
| 2026-04-27 19:38 | -10.87514 | -176.98132 | 34915 ft | 482 kts | 122° |
| 2026-04-27 19:38 | -10.91034 | -176.92311 | 34916 ft | 482 kts | 122° |
| 2026-04-27 19:39 | -10.94551 | -176.86493 | 34920 ft | 482 kts | 122° |
| 2026-04-27 19:39 | -10.98067 | -176.80673 | 34915 ft | 482 kts | 122° |
| 2026-04-27 19:40 | -11.01581 | -176.74853 | 34924 ft | 482 kts | 122° |
| 2026-04-27 19:40 | -11.05091 | -176.69037 | 34916 ft | 482 kts | 122° |
| 2026-04-27 19:41 | -11.08578 | -176.63255 | 34921 ft | 482 kts | 122° |
| 2026-04-27 19:41 | -11.12083 | -176.57440 | 34923 ft | 482 kts | 122° |
| 2026-04-27 19:42 | -11.15586 | -176.51626 | 34922 ft | 482 kts | 122° |
| 2026-04-27 19:42 | -11.19097 | -176.45794 | 34925 ft | 481 kts | 122° |
| 2026-04-27 19:43 | -11.22596 | -176.39978 | 34925 ft | 481 kts | 122° |
| 2026-04-27 19:43 | -11.26092 | -176.34166 | 34923 ft | 481 kts | 122° |
| 2026-04-27 19:44 | -11.29589 | -176.28348 | 34925 ft | 481 kts | 122° |
| 2026-04-27 19:44 | -11.33083 | -176.22532 | 34926 ft | 481 kts | 122° |
| 2026-04-27 19:45 | -11.36560 | -176.16741 | 34925 ft | 481 kts | 122° |
| 2026-04-27 19:45 | -11.40051 | -176.10922 | 34929 ft | 481 kts | 122° |
| 2026-04-27 19:46 | -11.43546 | -176.05094 | 34927 ft | 481 kts | 122° |
| 2026-04-27 19:46 | -11.47039 | -175.99266 | 34925 ft | 481 kts | 122° |
| 2026-04-27 19:47 | -11.50531 | -175.93438 | 34926 ft | 481 kts | 122° |
| 2026-04-27 19:47 | -11.54015 | -175.87617 | 34927 ft | 481 kts | 122° |
| 2026-04-27 19:48 | -11.57508 | -175.81779 | 34932 ft | 481 kts | 122° |
| 2026-04-27 19:48 | -11.60993 | -175.75951 | 34926 ft | 481 kts | 122° |
| 2026-04-27 19:49 | -11.64476 | -175.70123 | 34929 ft | 481 kts | 122° |
| 2026-04-27 19:49 | -11.67368 | -175.65282 | 34927 ft | 481 kts | 122° |
| 2026-04-27 19:50 | -11.70848 | -175.59453 | 34930 ft | 481 kts | 122° |
| 2026-04-27 19:50 | -11.74892 | -175.52674 | 34931 ft | 481 kts | 122° |
| 2026-04-27 19:51 | -11.77805 | -175.47789 | 34932 ft | 481 kts | 122° |
| 2026-04-27 19:51 | -11.81288 | -175.41943 | 34933 ft | 481 kts | 122° |
| 2026-04-27 19:52 | -11.84744 | -175.36140 | 34929 ft | 481 kts | 122° |
| 2026-04-27 19:52 | -11.88218 | -175.30303 | 34934 ft | 481 kts | 122° |
| 2026-04-27 19:53 | -11.93432 | -175.21537 | 34934 ft | 481 kts | 122° |
| 2026-04-27 19:53 | -11.96900 | -175.15703 | 34937 ft | 481 kts | 122° |
| 2026-04-27 19:54 | -12.00370 | -175.09861 | 34936 ft | 481 kts | 122° |
| 2026-04-27 19:54 | -12.03843 | -175.04009 | 34937 ft | 481 kts | 122° |
| 2026-04-27 19:55 | -12.07289 | -174.98200 | 34936 ft | 481 kts | 122° |
| 2026-04-27 19:55 | -12.10754 | -174.92356 | 34938 ft | 481 kts | 122° |
| 2026-04-27 19:56 | -12.14216 | -174.86512 | 34936 ft | 481 kts | 122° |
| 2026-04-27 19:56 | -12.17680 | -174.80664 | 34938 ft | 481 kts | 122° |
| 2026-04-27 19:57 | -12.21143 | -174.74811 | 34936 ft | 481 kts | 122° |
| 2026-04-27 19:57 | -12.24601 | -174.68963 | 34940 ft | 481 kts | 122° |
| 2026-04-27 19:58 | -12.28043 | -174.63139 | 34942 ft | 481 kts | 122° |
| 2026-04-27 19:58 | -12.31503 | -174.57283 | 34941 ft | 481 kts | 122° |
| 2026-04-27 19:59 | -12.34966 | -174.51418 | 34943 ft | 481 kts | 122° |
| 2026-04-27 19:59 | -12.38425 | -174.45557 | 34940 ft | 481 kts | 122° |
| 2026-04-27 20:00 | -12.41879 | -174.39702 | 34941 ft | 481 kts | 122° |
| 2026-04-27 20:00 | -12.45342 | -174.33826 | 34944 ft | 481 kts | 122° |
| 2026-04-27 20:01 | -12.48778 | -174.27995 | 34942 ft | 481 kts | 122° |
| 2026-04-27 20:01 | -12.52251 | -174.22134 | 34945 ft | 481 kts | 122° |
| 2026-04-27 20:02 | -12.55735 | -174.16281 | 34940 ft | 481 kts | 122° |
| 2026-04-27 20:02 | -12.59221 | -174.10419 | 34942 ft | 481 kts | 122° |
| 2026-04-27 20:03 | -12.62701 | -174.04557 | 34944 ft | 482 kts | 122° |
| 2026-04-27 20:03 | -12.66156 | -173.98734 | 34944 ft | 481 kts | 122° |
| 2026-04-27 20:04 | -12.69637 | -173.92864 | 34950 ft | 481 kts | 122° |
| 2026-04-27 20:04 | -12.73114 | -173.86997 | 34944 ft | 482 kts | 122° |
| 2026-04-27 20:05 | -12.76592 | -173.81126 | 34947 ft | 482 kts | 122° |
| 2026-04-27 20:05 | -12.80065 | -173.75257 | 34945 ft | 482 kts | 122° |
| 2026-04-27 20:06 | -12.83538 | -173.69386 | 34950 ft | 482 kts | 122° |
| 2026-04-27 20:06 | -12.87012 | -173.63507 | 34948 ft | 482 kts | 122° |
| 2026-04-27 20:07 | -12.90486 | -173.57627 | 34945 ft | 482 kts | 122° |
| 2026-04-27 20:07 | -12.93953 | -173.51753 | 34945 ft | 482 kts | 122° |
| 2026-04-27 20:08 | -12.97429 | -173.45863 | 34954 ft | 482 kts | 122° |
| 2026-04-27 20:08 | -13.00883 | -173.40005 | 34951 ft | 483 kts | 122° |
| 2026-04-27 20:09 | -13.04355 | -173.34110 | 34954 ft | 483 kts | 122° |
| 2026-04-27 20:09 | -13.07833 | -173.28204 | 34950 ft | 483 kts | 122° |
| 2026-04-27 20:10 | -13.11306 | -173.22300 | 34950 ft | 483 kts | 122° |
| 2026-04-27 20:10 | -13.14779 | -173.16394 | 34949 ft | 484 kts | 122° |
| 2026-04-27 20:11 | -13.18256 | -173.10476 | 34951 ft | 484 kts | 122° |
| 2026-04-27 20:11 | -13.21733 | -173.04555 | 34955 ft | 484 kts | 122° |
| 2026-04-27 20:12 | -13.25191 | -172.98662 | 34956 ft | 484 kts | 122° |
| 2026-04-27 20:12 | -13.28665 | -172.92739 | 34952 ft | 484 kts | 122° |
| 2026-04-27 20:13 | -13.32139 | -172.86810 | 34956 ft | 484 kts | 122° |
| 2026-04-27 20:13 | -13.35620 | -172.80866 | 34958 ft | 485 kts | 122° |
| 2026-04-27 20:14 | -13.39093 | -172.74930 | 34959 ft | 485 kts | 122° |
| 2026-04-27 20:14 | -13.42571 | -172.68982 | 34962 ft | 485 kts | 122° |
| 2026-04-27 20:15 | -13.46018 | -172.63082 | 34969 ft | 485 kts | 122° |
| 2026-04-27 20:15 | -13.49490 | -172.57141 | 34971 ft | 484 kts | 122° |
| 2026-04-27 20:16 | -13.52955 | -172.51203 | 34976 ft | 484 kts | 122° |
| 2026-04-27 20:16 | -13.56421 | -172.45260 | 34972 ft | 484 kts | 122° |
| 2026-04-27 20:17 | -13.59872 | -172.39316 | 34980 ft | 484 kts | 121° |
| 2026-04-27 20:17 | -13.62719 | -172.34363 | 34977 ft | 484 kts | 121° |
| 2026-04-27 20:18 | -13.66727 | -172.27398 | 34971 ft | 484 kts | 121° |
| 2026-04-27 20:18 | -13.70159 | -172.21434 | 34958 ft | 485 kts | 122° |
| 2026-04-27 20:19 | -13.73573 | -172.15500 | 34953 ft | 485 kts | 122° |
| 2026-04-27 20:19 | -13.77007 | -172.09525 | 34946 ft | 486 kts | 122° |
| 2026-04-27 20:20 | -13.80448 | -172.03536 | 34936 ft | 486 kts | 121° |
| 2026-04-27 20:20 | -13.83658 | -171.97403 | 34941 ft | 488 kts | 114° |
| 2026-04-27 20:21 | -13.86210 | -171.90932 | 34936 ft | 489 kts | 113° |
| 2026-04-27 20:21 | -13.88790 | -171.84458 | 34942 ft | 489 kts | 114° |
| 2026-04-27 20:22 | -13.91370 | -171.77986 | 34953 ft | 489 kts | 114° |
| 2026-04-27 20:22 | -13.93952 | -171.71497 | 34960 ft | 489 kts | 114° |
| 2026-04-27 20:23 | -13.96531 | -171.65015 | 34975 ft | 490 kts | 114° |
| 2026-04-27 20:23 | -13.99110 | -171.58518 | 34970 ft | 489 kts | 114° |
| 2026-04-27 20:24 | -14.01685 | -171.52024 | 34973 ft | 489 kts | 114° |
| 2026-04-27 20:24 | -14.04259 | -171.45535 | 34972 ft | 489 kts | 114° |
| 2026-04-27 20:25 | -14.06813 | -171.39087 | 34968 ft | 489 kts | 114° |
| 2026-04-27 20:25 | -14.09382 | -171.32587 | 34969 ft | 489 kts | 113° |
| 2026-04-27 20:26 | -14.11899 | -171.26057 | 34963 ft | 490 kts | 113° |
| 2026-04-27 20:26 | -14.14410 | -171.19524 | 34969 ft | 490 kts | 113° |
| 2026-04-27 20:27 | -14.16926 | -171.12987 | 34967 ft | 490 kts | 113° |
| 2026-04-27 20:27 | -14.19423 | -171.06497 | 34964 ft | 490 kts | 113° |
| 2026-04-27 20:28 | -14.21935 | -170.99965 | 34960 ft | 490 kts | 113° |
| 2026-04-27 20:28 | -14.24065 | -170.94501 | 34955 ft | 490 kts | 114° |
| 2026-04-27 20:29 | -14.27137 | -170.86970 | 34953 ft | 490 kts | 114° |
| 2026-04-27 20:29 | -14.29774 | -170.80473 | 34953 ft | 491 kts | 114° |
| 2026-04-27 20:30 | -14.32383 | -170.73971 | 34950 ft | 491 kts | 112° |
| 2026-04-27 20:30 | -14.34199 | -170.67164 | 34952 ft | 493 kts | 103° |
| 2026-04-27 20:31 | -14.35570 | -170.60229 | 34951 ft | 493 kts | 103° |
| 2026-04-27 20:31 | -14.36966 | -170.53302 | 34953 ft | 494 kts | 103° |
| 2026-04-27 20:32 | -14.38359 | -170.46367 | 34948 ft | 494 kts | 103° |
| 2026-04-27 20:32 | -14.39742 | -170.39478 | 34952 ft | 494 kts | 103° |
| 2026-04-27 20:33 | -14.41138 | -170.32499 | 34951 ft | 494 kts | 103° |
| 2026-04-27 20:33 | -14.42525 | -170.25560 | 34956 ft | 494 kts | 103° |
| 2026-04-27 20:34 | -14.43903 | -170.18657 | 34957 ft | 494 kts | 103° |
| 2026-04-27 20:34 | -14.45285 | -170.11714 | 34959 ft | 494 kts | 103° |
| 2026-04-27 20:35 | -14.46444 | -170.05891 | 34965 ft | 494 kts | 103° |
| 2026-04-27 20:35 | -14.47824 | -169.98940 | 34964 ft | 495 kts | 103° |
| 2026-04-27 20:36 | -14.49195 | -169.92022 | 34964 ft | 495 kts | 103° |
| 2026-04-27 20:36 | -14.50573 | -169.85066 | 34963 ft | 495 kts | 103° |
| 2026-04-27 20:37 | -14.51949 | -169.78107 | 34965 ft | 495 kts | 103° |
| 2026-04-27 20:37 | -14.53326 | -169.71134 | 34966 ft | 495 kts | 103° |
| 2026-04-27 20:38 | -14.54698 | -169.64162 | 34968 ft | 495 kts | 103° |
| 2026-04-27 20:38 | -14.56070 | -169.57185 | 34973 ft | 495 kts | 103° |
| 2026-04-27 20:39 | -14.57439 | -169.50212 | 34969 ft | 496 kts | 103° |
| 2026-04-27 20:39 | -14.58807 | -169.43233 | 34969 ft | 496 kts | 103° |
| 2026-04-27 20:40 | -14.60173 | -169.36256 | 34969 ft | 496 kts | 103° |
| 2026-04-27 20:40 | -14.61530 | -169.29315 | 34969 ft | 496 kts | 103° |
| 2026-04-27 20:41 | -14.62892 | -169.22333 | 34969 ft | 496 kts | 103° |
| 2026-04-27 20:41 | -14.64251 | -169.15351 | 34972 ft | 496 kts | 103° |
| 2026-04-27 20:42 | -14.65609 | -169.08367 | 34971 ft | 496 kts | 103° |
| 2026-04-27 20:42 | -14.66966 | -169.01381 | 34969 ft | 496 kts | 103° |
| 2026-04-27 20:43 | -14.68300 | -168.94429 | 34972 ft | 496 kts | 103° |
| 2026-04-27 20:43 | -14.69637 | -168.87438 | 34970 ft | 496 kts | 103° |
| 2026-04-27 20:44 | -14.70978 | -168.80437 | 34969 ft | 496 kts | 103° |
| 2026-04-27 20:44 | -14.72317 | -168.73438 | 34971 ft | 496 kts | 103° |
| 2026-04-27 20:45 | -14.73651 | -168.66442 | 34972 ft | 497 kts | 103° |
| 2026-04-27 20:45 | -14.74988 | -168.59430 | 34968 ft | 497 kts | 103° |
| 2026-04-27 20:46 | -14.76319 | -168.52426 | 34971 ft | 497 kts | 103° |
| 2026-04-27 20:46 | -14.77642 | -168.45453 | 34973 ft | 497 kts | 103° |
| 2026-04-27 20:47 | -14.78969 | -168.38446 | 34975 ft | 497 kts | 103° |
| 2026-04-27 20:47 | -14.80296 | -168.31434 | 34975 ft | 497 kts | 103° |
| 2026-04-27 20:48 | -14.81620 | -168.24423 | 34973 ft | 497 kts | 103° |
| 2026-04-27 20:48 | -14.82944 | -168.17398 | 34974 ft | 497 kts | 103° |
| 2026-04-27 20:49 | -14.84263 | -168.10386 | 34974 ft | 497 kts | 103° |
| 2026-04-27 20:49 | -14.85583 | -168.03366 | 34973 ft | 497 kts | 103° |
| 2026-04-27 20:50 | -14.86890 | -167.96392 | 34974 ft | 497 kts | 103° |
| 2026-04-27 20:50 | -14.88203 | -167.89373 | 34976 ft | 497 kts | 103° |
| 2026-04-27 20:51 | -14.89518 | -167.82345 | 34974 ft | 497 kts | 103° |
| 2026-04-27 20:51 | -14.90830 | -167.75314 | 34976 ft | 497 kts | 103° |
| 2026-04-27 20:52 | -14.92138 | -167.68287 | 34974 ft | 497 kts | 103° |
| 2026-04-27 20:52 | -14.93444 | -167.61266 | 34978 ft | 497 kts | 103° |
| 2026-04-27 20:53 | -14.94741 | -167.54280 | 34976 ft | 497 kts | 103° |
| 2026-04-27 20:53 | -14.96040 | -167.47258 | 34980 ft | 497 kts | 103° |
| 2026-04-27 20:54 | -14.97990 | -167.36708 | 34978 ft | 497 kts | 103° |
| 2026-04-27 20:55 | -14.99288 | -167.29669 | 34976 ft | 497 kts | 103° |
| 2026-04-27 20:55 | -15.00582 | -167.22643 | 34976 ft | 497 kts | 103° |
| 2026-04-27 20:56 | -15.01866 | -167.15656 | 34977 ft | 497 kts | 103° |
| 2026-04-27 20:56 | -15.03155 | -167.08627 | 34977 ft | 497 kts | 103° |
| 2026-04-27 20:57 | -15.04442 | -167.01594 | 34975 ft | 497 kts | 103° |
| 2026-04-27 20:57 | -15.05732 | -166.94539 | 34977 ft | 497 kts | 103° |
| 2026-04-27 20:58 | -15.07007 | -166.87551 | 34975 ft | 497 kts | 103° |
| 2026-04-27 20:58 | -15.08286 | -166.80526 | 34974 ft | 497 kts | 103° |
| 2026-04-27 20:59 | -15.09567 | -166.73483 | 34977 ft | 497 kts | 103° |
| 2026-04-27 20:59 | -15.10845 | -166.66438 | 34978 ft | 497 kts | 103° |
| 2026-04-27 21:00 | -15.12120 | -166.59400 | 34975 ft | 498 kts | 103° |
| 2026-04-27 21:00 | -15.13393 | -166.52359 | 34977 ft | 498 kts | 103° |
| 2026-04-27 21:01 | -15.14664 | -166.45316 | 34979 ft | 498 kts | 103° |
| 2026-04-27 21:01 | -15.15934 | -166.38265 | 34977 ft | 498 kts | 103° |
| 2026-04-27 21:02 | -15.17200 | -166.31222 | 34977 ft | 498 kts | 103° |
| 2026-04-27 21:02 | -15.18457 | -166.24217 | 34974 ft | 498 kts | 103° |
| 2026-04-27 21:03 | -15.19721 | -166.17166 | 34975 ft | 498 kts | 103° |
| 2026-04-27 21:03 | -15.20982 | -166.10110 | 34971 ft | 498 kts | 103° |
| 2026-04-27 21:04 | -15.22241 | -166.03055 | 34977 ft | 499 kts | 103° |
| 2026-04-27 21:04 | -15.23501 | -165.95982 | 34985 ft | 499 kts | 103° |
| 2026-04-27 21:05 | -15.24759 | -165.88910 | 34978 ft | 499 kts | 103° |
| 2026-04-27 21:05 | -15.26007 | -165.81875 | 34977 ft | 500 kts | 103° |